PWSweather.com
Personal Weather Stations
Station Observations
KMAMEDFI2
Medfield, MA 02052

Medfield, MA 02052

Lat: 42.1900822, Lon: -71.3296889

Elevation: 138

Station Type: Rainwise WS MK-III

http://www.medfieldweather.com

High Low Average
Temperature 42.9°F6.1°C 25.7°F-3.5°C 33.2°F0.7°C
Dew Point 33.3°F0.7°C 24.2°F-4.3°C 28.3°F-2.1°C
Winds 10.4 mph 16.7 kmh Calm Calm 3.0 mph WSW4.8 kmh WSW
Wind Gusts 12.7 mph20.4 kmh -- 3.0 mph4.8 kmh
Humidity 95% 52% 84%
Pressure 31.42 in1064.0 mb 30.38 in1028.8 mb -
Precipitation 0.11 in2.8 mm - -
Hour Temp Dew Point Humidity Winds Wind Gusts Pressure Precip Precip Rate Daily Precip Total
12:00 AM 31.1°F-0.5°C 29.8°F-1.2°C 95% 4.6 mph WSW7.4 kmh WSW 5.8 mph9.3 kmh 31.01 in1050.1 mb - 0.00 in0.0 mm 0.00 in0.0 mm
12:10 AM 31.1°F-0.5°C 29.8°F-1.2°C 95% 2.3 mph NW3.7 kmh NW 1.2 mph1.9 kmh 31.01 in1050.1 mb - 0.00 in0.0 mm 0.00 in0.0 mm
12:20 AM 31.1°F-0.5°C 29.8°F-1.2°C 95% 2.3 mph WSW3.7 kmh WSW 2.3 mph3.7 kmh 31.00 in1049.8 mb - 0.00 in0.0 mm 0.00 in0.0 mm
12:30 AM 31.2°F-0.4°C 29.9°F-1.2°C 95% 1.2 mph SW1.9 kmh SW 1.2 mph1.9 kmh 31.00 in1049.8 mb - 0.00 in0.0 mm 0.00 in0.0 mm
12:40 AM 31.2°F-0.4°C 29.9°F-1.2°C 95% Calm Calm 2.3 mph3.7 kmh 31.00 in1049.8 mb - 0.00 in0.0 mm 0.00 in0.0 mm
12:50 AM 31.3°F-0.4°C 30.0°F-1.1°C 95% 2.3 mph SSW3.7 kmh SSW 2.3 mph3.7 kmh 31.00 in1049.8 mb - 0.00 in0.0 mm 0.00 in0.0 mm
01:00 AM 31.3°F-0.4°C 30.0°F-1.1°C 95% Calm Calm 2.3 mph3.7 kmh 31.00 in1049.8 mb - 0.00 in0.0 mm 0.00 in0.0 mm
01:10 AM 31.4°F-0.3°C 30.1°F-1.1°C 95% Calm Calm 1.2 mph1.9 kmh 31.00 in1049.8 mb - 0.00 in0.0 mm 0.00 in0.0 mm
01:20 AM 31.4°F-0.3°C 30.1°F-1.1°C 95% Calm Calm 5.8 mph9.3 kmh 31.00 in1049.8 mb - 0.00 in0.0 mm 0.00 in0.0 mm
01:30 AM 31.5°F-0.3°C 30.2°F-1.0°C 95% 4.6 mph WNW7.4 kmh WNW 3.5 mph5.6 kmh 31.01 in1050.1 mb - 0.00 in0.0 mm 0.00 in0.0 mm
01:40 AM 31.5°F-0.3°C 30.2°F-1.0°C 95% Calm Calm 1.2 mph1.9 kmh 31.01 in1050.1 mb - 0.00 in0.0 mm 0.00 in0.0 mm
01:50 AM 31.5°F-0.3°C 30.2°F-1.0°C 95% Calm Calm -- 31.02 in1050.5 mb - 0.00 in0.0 mm 0.00 in0.0 mm
02:00 AM 31.5°F-0.3°C 30.2°F-1.0°C 95% 1.2 mph W1.9 kmh W 1.2 mph1.9 kmh 31.02 in1050.5 mb - 0.00 in0.0 mm 0.00 in0.0 mm
02:10 AM 31.4°F-0.3°C 30.1°F-1.1°C 95% Calm Calm -- 31.02 in1050.5 mb - 0.00 in0.0 mm 0.00 in0.0 mm
02:20 AM 31.2°F-0.4°C 29.9°F-1.2°C 95% Calm Calm -- 31.02 in1050.5 mb - 0.00 in0.0 mm 0.00 in0.0 mm
02:30 AM 30.7°F-0.7°C 29.1°F-1.6°C 94% Calm Calm 1.2 mph1.9 kmh 31.02 in1050.5 mb - 0.00 in0.0 mm 0.00 in0.0 mm
02:40 AM 29.9°F-1.2°C 28.4°F-2.0°C 94% 1.2 mph SE1.9 kmh SE 2.3 mph3.7 kmh 31.02 in1050.5 mb - 0.00 in0.0 mm 0.00 in0.0 mm
02:50 AM 29.4°F-1.4°C 27.9°F-2.3°C 94% Calm Calm -- 31.02 in1050.5 mb - 0.00 in0.0 mm 0.00 in0.0 mm
03:00 AM 28.9°F-1.7°C 27.4°F-2.6°C 94% Calm Calm -- 31.01 in1050.1 mb - 0.00 in0.0 mm 0.00 in0.0 mm
03:10 AM 28.4°F-2.0°C 26.9°F-2.8°C 94% Calm Calm -- 31.01 in1050.1 mb - 0.00 in0.0 mm 0.00 in0.0 mm
03:20 AM 27.9°F-2.3°C 26.4°F-3.1°C 94% Calm Calm 1.2 mph1.9 kmh 31.01 in1050.1 mb - 0.00 in0.0 mm 0.00 in0.0 mm
03:30 AM 27.5°F-2.5°C 26.0°F-3.3°C 94% Calm Calm -- 31.01 in1050.1 mb - 0.00 in0.0 mm 0.00 in0.0 mm
03:40 AM 27.4°F-2.6°C 25.9°F-3.4°C 94% Calm Calm -- 31.01 in1050.1 mb - 0.00 in0.0 mm 0.00 in0.0 mm
03:50 AM 27.8°F-2.3°C 26.3°F-3.2°C 94% Calm Calm -- 31.02 in1050.5 mb - 0.00 in0.0 mm 0.00 in0.0 mm
04:00 AM 27.4°F-2.6°C 25.9°F-3.4°C 94% Calm Calm -- 31.02 in1050.5 mb - 0.00 in0.0 mm 0.00 in0.0 mm
04:10 AM 26.9°F-2.8°C 25.4°F-3.7°C 94% Calm Calm -- 31.02 in1050.5 mb - 0.00 in0.0 mm 0.00 in0.0 mm
04:20 AM 27.1°F-2.7°C 25.6°F-3.6°C 94% Calm Calm -- 31.02 in1050.5 mb - 0.00 in0.0 mm 0.00 in0.0 mm
04:30 AM 27.9°F-2.3°C 26.4°F-3.1°C 94% 2.3 mph WSW3.7 kmh WSW 2.3 mph3.7 kmh 31.02 in1050.5 mb - 0.00 in0.0 mm 0.00 in0.0 mm
04:40 AM 28.2°F-2.1°C 26.7°F-2.9°C 94% 1.2 mph S1.9 kmh S 2.3 mph3.7 kmh 31.03 in1050.8 mb - 0.00 in0.0 mm 0.00 in0.0 mm
04:50 AM 28.3°F-2.1°C 26.8°F-2.9°C 94% 2.3 mph SW3.7 kmh SW 2.3 mph3.7 kmh 31.04 in1051.1 mb - 0.00 in0.0 mm 0.00 in0.0 mm
05:00 AM 28.3°F-2.1°C 26.8°F-2.9°C 94% 1.2 mph SW1.9 kmh SW 1.2 mph1.9 kmh 31.04 in1051.1 mb - 0.00 in0.0 mm 0.00 in0.0 mm
05:10 AM 28.7°F-1.8°C 27.2°F-2.7°C 94% 1.2 mph W1.9 kmh W 1.2 mph1.9 kmh 31.05 in1051.5 mb - 0.00 in0.0 mm 0.00 in0.0 mm
05:20 AM 28.8°F-1.8°C 27.3°F-2.6°C 94% 1.2 mph NW1.9 kmh NW 1.2 mph1.9 kmh 31.05 in1051.5 mb - 0.00 in0.0 mm 0.00 in0.0 mm
05:30 AM 28.9°F-1.7°C 27.4°F-2.6°C 94% 1.2 mph W1.9 kmh W 1.2 mph1.9 kmh 31.05 in1051.5 mb - 0.00 in0.0 mm 0.00 in0.0 mm
05:40 AM 29.3°F-1.5°C 27.8°F-2.3°C 94% 1.2 mph SW1.9 kmh SW 1.2 mph1.9 kmh 31.06 in1051.8 mb - 0.00 in0.0 mm 0.00 in0.0 mm
05:50 AM 29.5°F-1.4°C 28.0°F-2.2°C 94% 1.2 mph SE1.9 kmh SE 1.2 mph1.9 kmh 31.06 in1051.8 mb - 0.00 in0.0 mm 0.00 in0.0 mm
06:00 AM 29.6°F-1.3°C 28.1°F-2.2°C 94% 2.3 mph WSW3.7 kmh WSW 2.3 mph3.7 kmh 31.06 in1051.8 mb - 0.00 in0.0 mm 0.00 in0.0 mm
06:10 AM 29.9°F-1.2°C 28.4°F-2.0°C 94% 1.2 mph SW1.9 kmh SW 2.3 mph3.7 kmh 31.06 in1051.8 mb - 0.00 in0.0 mm 0.00 in0.0 mm
06:20 AM 30.0°F-1.1°C 28.5°F-1.9°C 94% 2.3 mph S3.7 kmh S 2.3 mph3.7 kmh 31.06 in1051.8 mb - 0.00 in0.0 mm 0.00 in0.0 mm
06:30 AM 30.1°F-1.1°C 28.6°F-1.9°C 94% 3.5 mph SW5.6 kmh SW 2.3 mph3.7 kmh 31.07 in1052.2 mb - 0.00 in0.0 mm 0.00 in0.0 mm
06:40 AM 30.1°F-1.1°C 28.6°F-1.9°C 94% 2.3 mph SSE3.7 kmh SSE 2.3 mph3.7 kmh 31.06 in1051.8 mb - 0.00 in0.0 mm 0.00 in0.0 mm
06:50 AM 29.9°F-1.2°C 28.4°F-2.0°C 94% 1.2 mph WNW1.9 kmh WNW 1.2 mph1.9 kmh 31.07 in1052.2 mb - 0.00 in0.0 mm 0.00 in0.0 mm
07:00 AM 29.7°F-1.3°C 28.2°F-2.1°C 94% 4.6 mph W7.4 kmh W 3.5 mph5.6 kmh 31.07 in1052.2 mb - 0.00 in0.0 mm 0.00 in0.0 mm
07:10 AM 29.8°F-1.2°C 28.3°F-2.1°C 94% 1.2 mph WSW1.9 kmh WSW 1.2 mph1.9 kmh 31.07 in1052.2 mb - 0.00 in0.0 mm 0.00 in0.0 mm
07:20 AM 29.7°F-1.3°C 28.2°F-2.1°C 94% 1.2 mph WSW1.9 kmh WSW 1.2 mph1.9 kmh 31.08 in1052.5 mb - 0.00 in0.0 mm 0.00 in0.0 mm
07:30 AM 29.3°F-1.5°C 27.8°F-2.3°C 94% 1.2 mph SW1.9 kmh SW 1.2 mph1.9 kmh 31.08 in1052.5 mb - 0.00 in0.0 mm 0.00 in0.0 mm
07:40 AM 29.1°F-1.6°C 27.6°F-2.4°C 94% 1.2 mph W1.9 kmh W 2.3 mph3.7 kmh 31.08 in1052.5 mb - 0.00 in0.0 mm 0.00 in0.0 mm
07:50 AM 29.0°F-1.7°C 27.5°F-2.5°C 94% 1.2 mph NNW1.9 kmh NNW 1.2 mph1.9 kmh 31.08 in1052.5 mb - 0.00 in0.0 mm 0.00 in0.0 mm
08:00 AM 29.5°F-1.4°C 28.0°F-2.2°C 94% 2.3 mph SSE3.7 kmh SSE 2.3 mph3.7 kmh 31.06 in1051.8 mb - 0.00 in0.0 mm 0.00 in0.0 mm
08:10 AM 29.7°F-1.3°C 28.2°F-2.1°C 94% 2.3 mph SSE3.7 kmh SSE 2.3 mph3.7 kmh 31.04 in1051.1 mb - 0.00 in0.0 mm 0.00 in0.0 mm
08:20 AM 30.2°F-1.0°C 28.7°F-1.8°C 94% 2.3 mph WSW3.7 kmh WSW 2.3 mph3.7 kmh 31.03 in1050.8 mb - 0.00 in0.0 mm 0.00 in0.0 mm
08:30 AM 30.7°F-0.7°C 29.2°F-1.6°C 94% 1.2 mph W1.9 kmh W 1.2 mph1.9 kmh 31.02 in1050.5 mb - 0.00 in0.0 mm 0.00 in0.0 mm
08:40 AM 31.3°F-0.4°C 30.0°F-1.1°C 95% 2.3 mph WSW3.7 kmh WSW 2.3 mph3.7 kmh 30.93 in1047.4 mb - 0.00 in0.0 mm 0.00 in0.0 mm
08:50 AM 32.3°F0.2°C 31.0°F-0.6°C 95% 8.1 mph SW13.0 kmh SW 8.1 mph13.0 kmh 30.88 in1045.7 mb - 0.00 in0.0 mm 0.00 in0.0 mm
09:00 AM 33.2°F0.7°C 31.9°F-0.1°C 95% 3.5 mph WSW5.6 kmh WSW 2.3 mph3.7 kmh 30.84 in1044.4 mb - 0.00 in0.0 mm 0.00 in0.0 mm
09:10 AM 33.7°F0.9°C 32.4°F0.2°C 95% 4.6 mph W7.4 kmh W 3.5 mph5.6 kmh 30.75 in1041.3 mb - 0.00 in0.0 mm 0.00 in0.0 mm
09:20 AM 34.3°F1.3°C 33.0°F0.6°C 95% 5.8 mph SW9.3 kmh SW 6.9 mph11.1 kmh 30.65 in1037.9 mb - 0.00 in0.0 mm 0.00 in0.0 mm
09:30 AM 34.9°F1.6°C 33.1°F0.6°C 93% 4.6 mph WSW7.4 kmh WSW 5.8 mph9.3 kmh 30.63 in1037.3 mb - 0.00 in0.0 mm 0.00 in0.0 mm
09:40 AM 35.4°F1.9°C 33.3°F0.7°C 92% 2.3 mph NW3.7 kmh NW 2.3 mph3.7 kmh 30.64 in1037.6 mb - 0.00 in0.0 mm 0.00 in0.0 mm
09:50 AM 35.8°F2.1°C 32.9°F0.5°C 89% 2.3 mph W3.7 kmh W 2.3 mph3.7 kmh 30.64 in1037.6 mb - 0.00 in0.0 mm 0.00 in0.0 mm
10:00 AM 36.7°F2.6°C 32.6°F0.3°C 85% 3.5 mph N5.6 kmh N 3.5 mph5.6 kmh 30.52 in1033.5 mb - 0.00 in0.0 mm 0.00 in0.0 mm
10:10 AM 37.0°F2.8°C 32.9°F0.5°C 85% 4.6 mph W7.4 kmh W 5.8 mph9.3 kmh 30.56 in1034.9 mb - 0.00 in0.0 mm 0.00 in0.0 mm
10:20 AM 37.5°F3.1°C 30.3°F-0.9°C 75% 5.8 mph NNW9.3 kmh NNW 5.8 mph9.3 kmh 30.45 in1031.2 mb - 0.00 in0.0 mm 0.00 in0.0 mm
10:30 AM 38.8°F3.8°C 31.6°F-0.2°C 75% 6.9 mph S11.1 kmh S 8.1 mph13.0 kmh 30.38 in1028.8 mb - 0.00 in0.0 mm 0.00 in0.0 mm
10:40 AM 39.9°F4.4°C 32.3°F0.2°C 74% 3.5 mph WSW5.6 kmh WSW 9.2 mph14.8 kmh 30.44 in1030.8 mb - 0.00 in0.0 mm 0.00 in0.0 mm
10:50 AM 40.5°F4.7°C 32.2°F0.1°C 72% 3.5 mph N5.6 kmh N 6.9 mph11.1 kmh 30.46 in1031.5 mb - 0.00 in0.0 mm 0.00 in0.0 mm
11:00 AM 40.9°F4.9°C 31.1°F-0.5°C 68% 2.3 mph WNW3.7 kmh WNW 1.2 mph1.9 kmh 30.46 in1031.5 mb - 0.00 in0.0 mm 0.00 in0.0 mm
11:10 AM 41.7°F5.4°C 30.4°F-0.9°C 64% 3.5 mph WSW5.6 kmh WSW 2.3 mph3.7 kmh 30.46 in1031.5 mb - 0.00 in0.0 mm 0.00 in0.0 mm
11:20 AM 41.9°F5.5°C 29.8°F-1.2°C 62% 4.6 mph SW7.4 kmh SW 5.8 mph9.3 kmh 30.52 in1033.5 mb - 0.00 in0.0 mm 0.00 in0.0 mm
11:30 AM 42.5°F5.8°C 30.0°F-1.1°C 61% 5.8 mph NW9.3 kmh NW 6.9 mph11.1 kmh 30.45 in1031.2 mb - 0.00 in0.0 mm 0.00 in0.0 mm
11:40 AM 41.7°F5.4°C 30.8°F-0.7°C 65% 9.2 mph SW14.8 kmh SW 10.4 mph16.7 kmh 30.57 in1035.2 mb - 0.00 in0.0 mm 0.00 in0.0 mm
11:50 AM 40.7°F4.8°C 31.3°F-0.4°C 69% 6.9 mph NW11.1 kmh NW 5.8 mph9.3 kmh 30.63 in1037.3 mb - 0.00 in0.0 mm 0.00 in0.0 mm
12:00 PM 40.3°F4.6°C 30.5°F-0.8°C 68% 10.4 mph NW16.7 kmh NW 8.1 mph13.0 kmh 30.57 in1035.2 mb - 0.01 in0.3 mm 0.01 in0.3 mm
12:10 PM 39.8°F4.3°C 30.8°F-0.7°C 70% 3.5 mph WSW5.6 kmh WSW 2.3 mph3.7 kmh 30.62 in1036.9 mb - 0.01 in0.3 mm 0.02 in0.5 mm
12:20 PM 39.8°F4.3°C 31.5°F-0.3°C 72% 4.6 mph NW7.4 kmh NW 5.8 mph9.3 kmh 30.60 in1036.2 mb - 0.00 in0.0 mm 0.02 in0.5 mm
12:30 PM 40.0°F4.4°C 30.3°F-0.9°C 68% 8.1 mph SW13.0 kmh SW 8.1 mph13.0 kmh 30.50 in1032.8 mb - 0.01 in0.3 mm 0.03 in0.8 mm
12:40 PM 39.8°F4.3°C 28.3°F-2.1°C 63% 4.6 mph WSW7.4 kmh WSW 6.9 mph11.1 kmh 30.58 in1035.6 mb - 0.00 in0.0 mm 0.03 in0.8 mm
12:50 PM 39.3°F4.1°C 27.0°F-2.8°C 61% 4.6 mph WSW7.4 kmh WSW 3.5 mph5.6 kmh 30.61 in1036.6 mb - 0.00 in0.0 mm 0.03 in0.8 mm
01:00 PM 40.5°F4.7°C 26.8°F-2.9°C 58% 5.8 mph NW9.3 kmh NW 8.1 mph13.0 kmh 30.43 in1030.5 mb - 0.01 in0.3 mm 0.04 in1.0 mm
01:10 PM 40.5°F4.7°C 25.6°F-3.6°C 55% 3.5 mph WNW5.6 kmh WNW 2.3 mph3.7 kmh 30.52 in1033.5 mb - 0.00 in0.0 mm 0.04 in1.0 mm
01:20 PM 41.9°F5.5°C 26.4°F-3.1°C 54% 3.5 mph SSW5.6 kmh SSW 2.3 mph3.7 kmh 30.46 in1031.5 mb - 0.01 in0.3 mm 0.05 in1.3 mm
01:30 PM 42.2°F5.7°C 26.7°F-2.9°C 54% 4.6 mph NW7.4 kmh NW 8.1 mph13.0 kmh 30.48 in1032.2 mb - 0.01 in0.3 mm 0.06 in1.5 mm
01:40 PM 42.9°F6.1°C 26.9°F-2.8°C 53% 5.8 mph S9.3 kmh S 5.8 mph9.3 kmh 30.49 in1032.5 mb - 0.01 in0.3 mm 0.06 in1.5 mm
01:50 PM 42.6°F5.9°C 26.7°F-2.9°C 53% 5.8 mph WSW9.3 kmh WSW 9.2 mph14.8 kmh 30.49 in1032.5 mb - 0.01 in0.3 mm 0.07 in1.8 mm
02:00 PM 42.5°F5.8°C 26.1°F-3.3°C 52% 8.1 mph WSW13.0 kmh WSW 10.4 mph16.7 kmh 30.50 in1032.8 mb - 0.01 in0.3 mm 0.08 in2.0 mm
02:10 PM 42.6°F5.9°C 27.1°F-2.7°C 54% 4.6 mph W7.4 kmh W 3.5 mph5.6 kmh 30.59 in1035.9 mb - 0.01 in0.3 mm 0.09 in2.3 mm
02:20 PM 41.6°F5.3°C 27.0°F-2.8°C 56% 5.8 mph WNW9.3 kmh WNW 5.8 mph9.3 kmh 30.67 in1038.6 mb - 0.00 in0.0 mm 0.09 in2.3 mm
02:30 PM 40.4°F4.7°C 27.2°F-2.7°C 59% 4.6 mph W7.4 kmh W 8.1 mph13.0 kmh 30.70 in1039.6 mb - 0.01 in0.3 mm 0.10 in2.5 mm
02:40 PM 40.4°F4.7°C 27.6°F-2.4°C 60% 8.1 mph W13.0 kmh W 6.9 mph11.1 kmh 30.72 in1040.3 mb - 0.00 in0.0 mm 0.10 in2.5 mm
02:50 PM 40.1°F4.5°C 26.9°F-2.8°C 59% 2.3 mph SW3.7 kmh SW 2.3 mph3.7 kmh 30.73 in1040.6 mb - 0.00 in0.0 mm 0.10 in2.5 mm
03:00 PM 40.1°F4.5°C 26.9°F-2.8°C 59% 1.2 mph WSW1.9 kmh WSW 1.2 mph1.9 kmh 30.75 in1041.3 mb - 0.00 in0.0 mm 0.10 in2.5 mm
03:10 PM 40.0°F4.4°C 27.6°F-2.4°C 61% 6.9 mph WSW11.1 kmh WSW 6.9 mph11.1 kmh 30.75 in1041.3 mb - 0.00 in0.0 mm 0.10 in2.5 mm
03:20 PM 40.0°F4.4°C 27.2°F-2.7°C 60% 10.4 mph WNW16.7 kmh WNW 12.7 mph20.4 kmh 30.71 in1040.0 mb - 0.00 in0.0 mm 0.10 in2.5 mm
03:30 PM 39.6°F4.2°C 28.1°F-2.2°C 63% 3.5 mph WSW5.6 kmh WSW 3.5 mph5.6 kmh 30.74 in1041.0 mb - 0.00 in0.0 mm 0.10 in2.5 mm
03:40 PM 39.0°F3.9°C 28.3°F-2.1°C 65% 3.5 mph WSW5.6 kmh WSW 2.3 mph3.7 kmh 30.76 in1041.7 mb - 0.00 in0.0 mm 0.10 in2.5 mm
03:50 PM 38.7°F3.7°C 28.3°F-2.1°C 66% 3.5 mph WSW5.6 kmh WSW 2.3 mph3.7 kmh 30.78 in1042.3 mb - 0.01 in0.3 mm 0.11 in2.8 mm
04:00 PM 38.3°F3.5°C 28.3°F-2.1°C 67% 1.2 mph WNW1.9 kmh WNW 2.3 mph3.7 kmh 30.80 in1043.0 mb - 0.00 in0.0 mm 0.11 in2.8 mm
04:10 PM 38.3°F3.5°C 27.9°F-2.3°C 66% 2.3 mph WSW3.7 kmh WSW 1.2 mph1.9 kmh 30.82 in1043.7 mb - 0.00 in0.0 mm 0.11 in2.8 mm
04:20 PM 37.8°F3.2°C 28.6°F-1.9°C 69% 2.3 mph NW3.7 kmh NW 2.3 mph3.7 kmh 30.84 in1044.4 mb - 0.00 in0.0 mm 0.11 in2.8 mm
04:30 PM 37.0°F2.8°C 27.8°F-2.3°C 69% 5.8 mph WSW9.3 kmh WSW 5.8 mph9.3 kmh 30.87 in1045.4 mb - 0.00 in0.0 mm 0.11 in2.8 mm
04:40 PM 36.7°F2.6°C 27.8°F-2.3°C 70% 4.6 mph W7.4 kmh W 5.8 mph9.3 kmh 30.89 in1046.1 mb - 0.00 in0.0 mm 0.11 in2.8 mm
04:50 PM 36.4°F2.4°C 28.2°F-2.1°C 72% 2.3 mph WNW3.7 kmh WNW 2.3 mph3.7 kmh 30.92 in1047.1 mb - 0.00 in0.0 mm 0.11 in2.8 mm
05:00 PM 35.9°F2.2°C 28.1°F-2.2°C 73% 4.6 mph NW7.4 kmh NW 3.5 mph5.6 kmh 30.95 in1048.1 mb - 0.00 in0.0 mm 0.11 in2.8 mm
05:10 PM 35.7°F2.1°C 28.6°F-1.9°C 75% 3.5 mph WSW5.6 kmh WSW 2.3 mph3.7 kmh 30.97 in1048.8 mb - 0.00 in0.0 mm 0.11 in2.8 mm
05:20 PM 35.2°F1.8°C 28.7°F-1.8°C 77% 6.9 mph WSW11.1 kmh WSW 5.8 mph9.3 kmh 30.99 in1049.4 mb - 0.00 in0.0 mm 0.11 in2.8 mm
05:30 PM 35.0°F1.7°C 28.8°F-1.8°C 78% 8.1 mph N13.0 kmh N 8.1 mph13.0 kmh 31.00 in1049.8 mb - 0.00 in0.0 mm 0.11 in2.8 mm
05:40 PM 34.9°F1.6°C 28.4°F-2.0°C 77% 3.5 mph WNW5.6 kmh WNW 2.3 mph3.7 kmh 31.02 in1050.5 mb - 0.00 in0.0 mm 0.11 in2.8 mm
05:50 PM 34.7°F1.5°C 28.2°F-2.1°C 77% 5.8 mph WSW9.3 kmh WSW 5.8 mph9.3 kmh 31.04 in1051.1 mb - 0.00 in0.0 mm 0.11 in2.8 mm
06:00 PM 34.4°F1.3°C 28.3°F-2.1°C 78% 6.9 mph SW11.1 kmh SW 5.8 mph9.3 kmh 31.06 in1051.8 mb - 0.00 in0.0 mm 0.11 in2.8 mm
06:10 PM 34.2°F1.2°C 27.7°F-2.4°C 77% 1.2 mph S1.9 kmh S 2.3 mph3.7 kmh 31.09 in1052.8 mb - 0.00 in0.0 mm 0.11 in2.8 mm
06:20 PM 33.6°F0.9°C 27.7°F-2.4°C 79% 2.3 mph SW3.7 kmh SW 8.1 mph13.0 kmh 31.11 in1053.5 mb - 0.00 in0.0 mm 0.11 in2.8 mm
06:30 PM 33.3°F0.7°C 28.1°F-2.2°C 81% 5.8 mph NW9.3 kmh NW 5.8 mph9.3 kmh 31.12 in1053.8 mb - 0.00 in0.0 mm 0.11 in2.8 mm
06:40 PM 32.9°F0.5°C 28.0°F-2.2°C 82% 3.5 mph W5.6 kmh W 5.8 mph9.3 kmh 31.14 in1054.5 mb - 0.00 in0.0 mm 0.11 in2.8 mm
06:50 PM 32.9°F0.5°C 27.7°F-2.4°C 81% 2.3 mph WSW3.7 kmh WSW 1.2 mph1.9 kmh 31.15 in1054.9 mb - 0.00 in0.0 mm 0.11 in2.8 mm
07:00 PM 32.7°F0.4°C 27.8°F-2.3°C 82% 5.8 mph WSW9.3 kmh WSW 5.8 mph9.3 kmh 31.17 in1055.5 mb - 0.00 in0.0 mm 0.11 in2.8 mm
07:10 PM 32.5°F0.3°C 27.9°F-2.3°C 83% 4.6 mph WSW7.4 kmh WSW 3.5 mph5.6 kmh 31.19 in1056.2 mb - 0.00 in0.0 mm 0.11 in2.8 mm
07:20 PM 32.1°F0.1°C 28.1°F-2.2°C 85% 3.5 mph WSW5.6 kmh WSW 2.3 mph3.7 kmh 31.21 in1056.9 mb - 0.00 in0.0 mm 0.11 in2.8 mm
07:30 PM 31.9°F-0.1°C 27.9°F-2.3°C 85% 3.5 mph WSW5.6 kmh WSW 2.3 mph3.7 kmh 31.22 in1057.2 mb - 0.00 in0.0 mm 0.11 in2.8 mm
07:40 PM 31.7°F-0.2°C 27.7°F-2.4°C 85% 6.9 mph WNW11.1 kmh WNW 6.9 mph11.1 kmh 31.23 in1057.6 mb - 0.00 in0.0 mm 0.11 in2.8 mm
07:50 PM 31.3°F-0.4°C 27.6°F-2.4°C 86% Calm Calm 1.2 mph1.9 kmh 31.25 in1058.2 mb - 0.00 in0.0 mm 0.11 in2.8 mm
08:00 PM 30.9°F-0.6°C 27.2°F-2.7°C 86% 1.2 mph WSW1.9 kmh WSW 1.2 mph1.9 kmh 31.26 in1058.6 mb - 0.00 in0.0 mm 0.11 in2.8 mm
08:10 PM 30.6°F-0.8°C 27.7°F-2.4°C 89% 1.2 mph W1.9 kmh W 1.2 mph1.9 kmh 31.26 in1058.6 mb - 0.00 in0.0 mm 0.11 in2.8 mm
08:20 PM 30.0°F-1.1°C 27.4°F-2.6°C 90% 3.5 mph NW5.6 kmh NW 2.3 mph3.7 kmh 31.27 in1058.9 mb - 0.00 in0.0 mm 0.11 in2.8 mm
08:30 PM 29.8°F-1.2°C 27.2°F-2.7°C 90% 2.3 mph N3.7 kmh N 2.3 mph3.7 kmh 31.27 in1058.9 mb - 0.00 in0.0 mm 0.11 in2.8 mm
08:40 PM 28.9°F-1.7°C 27.1°F-2.7°C 93% 3.5 mph WSW5.6 kmh WSW 2.3 mph3.7 kmh 31.29 in1059.6 mb - 0.00 in0.0 mm 0.11 in2.8 mm
08:50 PM 28.9°F-1.7°C 27.1°F-2.7°C 93% 3.5 mph WSW5.6 kmh WSW 2.3 mph3.7 kmh 31.30 in1059.9 mb - 0.00 in0.0 mm 0.11 in2.8 mm
09:00 PM 28.5°F-1.9°C 27.0°F-2.8°C 94% 2.3 mph SW3.7 kmh SW 2.3 mph3.7 kmh 31.31 in1060.3 mb - 0.00 in0.0 mm 0.11 in2.8 mm
09:10 PM 28.7°F-1.8°C 27.2°F-2.7°C 94% 1.2 mph W1.9 kmh W 1.2 mph1.9 kmh 31.32 in1060.6 mb - 0.00 in0.0 mm 0.11 in2.8 mm
09:20 PM 28.6°F-1.9°C 27.1°F-2.7°C 94% 1.2 mph SW1.9 kmh SW 1.2 mph1.9 kmh 31.33 in1061.0 mb - 0.00 in0.0 mm 0.11 in2.8 mm
09:30 PM 29.0°F-1.7°C 27.0°F-2.8°C 92% 4.6 mph WSW7.4 kmh WSW 2.3 mph3.7 kmh 31.34 in1061.3 mb - 0.00 in0.0 mm 0.11 in2.8 mm
09:40 PM 28.8°F-1.8°C 27.3°F-2.6°C 94% 2.3 mph WSW3.7 kmh WSW 2.3 mph3.7 kmh 31.35 in1061.6 mb - 0.00 in0.0 mm 0.11 in2.8 mm
09:50 PM 28.9°F-1.7°C 27.4°F-2.6°C 94% 2.3 mph W3.7 kmh W 2.3 mph3.7 kmh 31.35 in1061.6 mb - 0.00 in0.0 mm 0.11 in2.8 mm
10:00 PM 28.6°F-1.9°C 26.8°F-2.9°C 93% 2.3 mph WSW3.7 kmh WSW 1.2 mph1.9 kmh 31.36 in1062.0 mb - 0.00 in0.0 mm 0.11 in2.8 mm
10:10 PM 28.4°F-2.0°C 26.6°F-3.0°C 93% 3.5 mph W5.6 kmh W 2.3 mph3.7 kmh 31.37 in1062.3 mb - 0.00 in0.0 mm 0.11 in2.8 mm
10:20 PM 28.3°F-2.1°C 26.8°F-2.9°C 94% 3.5 mph SW5.6 kmh SW 5.8 mph9.3 kmh 31.37 in1062.3 mb - 0.00 in0.0 mm 0.11 in2.8 mm
10:30 PM 27.9°F-2.3°C 26.4°F-3.1°C 94% 1.2 mph W1.9 kmh W 1.2 mph1.9 kmh 31.39 in1063.0 mb - 0.00 in0.0 mm 0.11 in2.8 mm
10:40 PM 27.6°F-2.4°C 26.1°F-3.3°C 94% 3.5 mph NNW5.6 kmh NNW 2.3 mph3.7 kmh 31.38 in1062.6 mb - 0.00 in0.0 mm 0.11 in2.8 mm
10:50 PM 27.8°F-2.3°C 26.3°F-3.2°C 94% 5.8 mph WSW9.3 kmh WSW 5.8 mph9.3 kmh 31.39 in1063.0 mb - 0.00 in0.0 mm 0.11 in2.8 mm
11:00 PM 27.5°F-2.5°C 26.0°F-3.3°C 94% 3.5 mph W5.6 kmh W 2.3 mph3.7 kmh 31.39 in1063.0 mb - 0.00 in0.0 mm 0.11 in2.8 mm
11:10 PM 27.3°F-2.6°C 25.8°F-3.4°C 94% 1.2 mph WSW1.9 kmh WSW 1.2 mph1.9 kmh 31.39 in1063.0 mb - 0.00 in0.0 mm 0.11 in2.8 mm
11:20 PM 27.0°F-2.8°C 25.5°F-3.6°C 94% Calm Calm 1.2 mph1.9 kmh 31.40 in1063.3 mb - 0.00 in0.0 mm 0.11 in2.8 mm
11:30 PM 26.1°F-3.3°C 24.6°F-4.1°C 94% 3.5 mph WSW5.6 kmh WSW 2.3 mph3.7 kmh 31.39 in1063.0 mb - 0.00 in0.0 mm 0.11 in2.8 mm
11:40 PM 25.9°F-3.4°C 24.4°F-4.2°C 94% Calm Calm 1.2 mph1.9 kmh 31.42 in1064.0 mb - 0.00 in0.0 mm 0.11 in2.8 mm
11:50 PM 25.7°F-3.5°C 24.2°F-4.3°C 94% 3.5 mph N5.6 kmh N 2.3 mph3.7 kmh 31.41 in1063.7 mb - 0.00 in0.0 mm 0.11 in2.8 mm